createdAt,value
2024-03-16T00:02:21.169Z,1.63
2024-03-16T00:04:48.187Z,1.50
2024-03-16T00:07:15.081Z,1.90
2024-03-16T00:09:41.981Z,1.70
2024-03-16T00:12:08.953Z,1.77
2024-03-16T00:14:35.834Z,1.67
2024-03-16T00:17:02.854Z,2.40
2024-03-16T00:19:30.007Z,1.93
2024-03-16T00:21:57.226Z,2.20
2024-03-16T00:24:24.075Z,1.50
2024-03-16T00:26:51.427Z,1.60
2024-03-16T00:29:18.925Z,1.60
2024-03-16T00:31:48.308Z,1.73
2024-03-16T00:34:15.495Z,1.70
2024-03-16T00:36:42.314Z,1.73
2024-03-16T00:39:16.975Z,1.47
2024-03-16T00:41:44.389Z,1.60
2024-03-16T00:44:11.587Z,1.83
2024-03-16T00:46:38.562Z,2.13
2024-03-16T00:49:05.470Z,1.70
2024-03-16T00:51:34.405Z,2.10
2024-03-16T00:54:01.385Z,2.10
2024-03-16T00:56:28.273Z,2.00
2024-03-16T00:58:55.150Z,1.90
2024-03-16T01:01:23.374Z,2.23
2024-03-16T01:03:50.223Z,1.80
2024-03-16T01:06:17.564Z,1.77
2024-03-16T01:08:44.424Z,1.70
2024-03-16T01:11:11.237Z,2.47
2024-03-16T01:13:38.116Z,1.70
2024-03-16T01:16:05.512Z,1.93
2024-03-16T01:18:32.299Z,1.73
2024-03-16T01:20:59.198Z,1.80
2024-03-16T01:23:26.031Z,2.00
2024-03-16T01:25:53.183Z,1.40
2024-03-16T01:28:19.927Z,1.50
2024-03-16T01:30:46.710Z,1.50
2024-03-16T01:33:13.482Z,1.50
2024-03-16T01:35:40.397Z,1.50
2024-03-16T01:38:07.156Z,1.90
2024-03-16T01:40:34.009Z,1.73
2024-03-16T01:43:01.195Z,1.60
2024-03-16T01:45:29.322Z,1.47
2024-03-16T01:47:56.905Z,1.70
2024-03-16T01:50:23.807Z,1.80
2024-03-16T01:52:50.842Z,2.07
2024-03-16T01:55:18.244Z,1.83
2024-03-16T01:57:45.676Z,1.90
2024-03-16T02:00:13.372Z,2.27
2024-03-16T02:02:40.606Z,2.30
2024-03-16T02:05:08.416Z,2.40
2024-03-16T02:07:38.463Z,2.00
2024-03-16T02:10:06.742Z,2.00
2024-03-16T02:12:34.176Z,2.13
2024-03-16T02:15:01.232Z,2.03
2024-03-16T02:17:28.817Z,2.43
2024-03-16T02:19:55.978Z,1.93
2024-03-16T02:22:24.827Z,2.00
2024-03-16T02:24:51.768Z,2.73
2024-03-16T02:27:18.686Z,2.73
2024-03-16T02:29:45.513Z,2.80
2024-03-16T02:32:12.670Z,2.43
2024-03-16T02:34:39.740Z,2.50
2024-03-16T02:37:07.301Z,2.30
2024-03-16T02:39:34.507Z,3.07
2024-03-16T02:42:05.563Z,2.63
2024-03-16T02:44:32.994Z,3.30
2024-03-16T02:47:00.225Z,3.03
2024-03-16T02:49:27.135Z,2.70
2024-03-16T02:51:54.573Z,2.73
2024-03-16T02:54:22.276Z,3.33
2024-03-16T02:56:49.375Z,3.10
2024-03-16T02:59:16.675Z,3.43
2024-03-16T03:01:43.476Z,3.23
2024-03-16T03:04:16.065Z,3.50
2024-03-16T03:06:44.316Z,4.03
2024-03-16T03:09:11.324Z,3.70
2024-03-16T03:11:38.980Z,5.20
2024-03-16T03:14:07.776Z,3.83
2024-03-16T03:16:34.807Z,4.17
2024-03-16T03:19:01.675Z,4.40
2024-03-16T03:21:30.326Z,4.60
2024-03-16T03:23:57.942Z,4.63
2024-03-16T03:26:25.159Z,5.00
2024-03-16T03:28:52.471Z,4.73
2024-03-16T03:31:19.872Z,5.50
2024-03-16T03:33:47.487Z,5.50
2024-03-16T03:36:14.436Z,5.63
2024-03-16T03:38:41.323Z,5.67
2024-03-16T03:41:09.422Z,3.60
2024-03-16T03:43:38.674Z,3.03
2024-03-16T03:46:06.489Z,3.50
2024-03-16T03:48:43.161Z,3.30
2024-03-16T03:51:10.543Z,4.07
2024-03-16T03:53:37.430Z,4.57
2024-03-16T03:56:04.488Z,5.00
2024-03-16T03:58:31.293Z,5.50
2024-03-16T04:00:58.173Z,4.83
2024-03-16T04:03:24.885Z,3.43
2024-03-16T04:05:53.212Z,3.30
2024-03-16T04:08:20.306Z,3.40
2024-03-16T04:10:47.228Z,3.20
2024-03-16T04:13:14.505Z,3.67
2024-03-16T04:15:41.428Z,3.20
2024-03-16T04:18:08.276Z,3.97
2024-03-16T04:20:35.306Z,3.60
2024-03-16T04:23:03.131Z,3.37
2024-03-16T04:25:30.272Z,3.10
2024-03-16T04:27:58.232Z,3.37
2024-03-16T04:30:25.066Z,3.40
2024-03-16T04:32:51.859Z,3.70
2024-03-16T04:35:18.741Z,3.27
2024-03-16T04:37:46.493Z,3.90
2024-03-16T04:40:13.464Z,3.83
2024-03-16T04:42:40.468Z,3.60
2024-03-16T04:45:07.897Z,3.60
2024-03-16T04:47:34.716Z,3.47
2024-03-16T04:50:02.001Z,3.80
2024-03-16T04:52:28.927Z,3.50
2024-03-16T04:54:55.750Z,4.00
2024-03-16T04:57:22.736Z,4.10
2024-03-16T04:59:49.673Z,3.60
2024-03-16T05:02:16.362Z,4.03
2024-03-16T05:04:43.256Z,3.63
2024-03-16T05:07:10.274Z,4.27
2024-03-16T05:09:38.044Z,4.33
2024-03-16T05:12:05.567Z,4.53
2024-03-16T05:14:33.184Z,4.30
2024-03-16T05:16:59.990Z,4.97
2024-03-16T05:19:27.016Z,4.50
2024-03-16T05:21:53.843Z,4.57
2024-03-16T05:24:20.924Z,4.90
2024-03-16T05:26:48.462Z,4.77
2024-03-16T05:29:15.851Z,5.27
2024-03-16T05:31:58.025Z,4.80
2024-03-16T05:34:25.470Z,5.83
2024-03-16T05:36:52.743Z,4.77
2024-03-16T05:39:20.531Z,4.30
2024-03-16T05:41:47.793Z,4.80
2024-03-16T05:44:14.830Z,4.40
2024-03-16T05:46:42.244Z,4.73
2024-03-16T05:49:09.413Z,4.20
2024-03-16T05:51:36.367Z,3.90
2024-03-16T05:54:05.533Z,4.50
2024-03-16T05:56:33.897Z,4.87
2024-03-16T05:59:01.586Z,3.87
2024-03-16T06:01:29.172Z,4.13
2024-03-16T06:03:56.775Z,3.60
2024-03-16T06:06:23.653Z,3.17
2024-03-16T06:08:50.481Z,3.37
2024-03-16T06:11:17.504Z,3.20
2024-03-16T06:13:45.784Z,3.27
2024-03-16T06:16:12.903Z,3.30
2024-03-16T06:18:41.684Z,2.60
2024-03-16T06:21:11.274Z,3.00
2024-03-16T06:23:38.741Z,2.77
2024-03-16T06:26:07.721Z,2.77
2024-03-16T06:28:38.339Z,3.50
2024-03-16T06:31:10.383Z,3.50
2024-03-16T06:33:38.283Z,3.40
2024-03-16T06:36:05.525Z,2.80
2024-03-16T06:38:32.453Z,2.67
2024-03-16T06:40:59.552Z,2.03
2024-03-16T06:43:26.748Z,2.43
2024-03-16T06:45:53.587Z,2.30
2024-03-16T06:48:22.668Z,2.67
2024-03-16T06:50:50.643Z,2.10
2024-03-16T06:53:17.660Z,2.47
2024-03-16T06:55:55.360Z,2.77
2024-03-16T06:58:22.845Z,2.47
2024-03-16T07:00:49.982Z,2.83
2024-03-16T07:03:17.125Z,2.53
2024-03-16T07:05:44.521Z,3.00
2024-03-16T07:08:20.202Z,2.67
2024-03-16T07:10:48.172Z,2.37
2024-03-16T07:14:19.200Z,2.93
2024-03-16T07:16:45.961Z,2.60
2024-03-16T07:19:13.208Z,2.50
2024-03-16T07:21:40.191Z,2.70
2024-03-16T07:24:11.046Z,2.70
2024-03-16T07:26:38.033Z,2.20
2024-03-16T07:29:05.112Z,2.53
2024-03-16T07:31:32.545Z,2.80
2024-03-16T07:34:02.413Z,2.00
2024-03-16T07:36:37.336Z,1.80
2024-03-16T07:39:09.809Z,1.57
2024-03-16T07:41:37.181Z,1.23
2024-03-16T07:44:04.359Z,1.33
2024-03-16T07:46:31.271Z,1.83
2024-03-16T07:49:02.269Z,1.90
2024-03-16T07:51:32.940Z,1.40
2024-03-16T07:54:01.627Z,1.90
2024-03-16T07:56:28.393Z,1.13
2024-03-16T07:58:55.303Z,1.10
2024-03-16T08:01:24.589Z,1.30
2024-03-16T08:03:51.677Z,1.10
2024-03-16T08:06:18.538Z,1.00
2024-03-16T08:08:45.578Z,1.20
2024-03-16T08:11:12.883Z,1.40
2024-03-16T08:13:39.846Z,0.90
2024-03-16T08:16:07.533Z,0.67
2024-03-16T08:18:34.384Z,0.80
2024-03-16T08:21:01.340Z,0.50
2024-03-16T08:23:29.446Z,0.67
2024-03-16T08:25:56.855Z,0.60
2024-03-16T08:28:23.676Z,1.03
2024-03-16T08:30:50.410Z,0.80
2024-03-16T08:33:17.284Z,0.63
2024-03-16T08:35:44.689Z,0.80
2024-03-16T08:38:11.456Z,0.67
2024-03-16T08:40:38.171Z,0.60
2024-03-16T08:43:05.069Z,0.90
2024-03-16T08:45:31.982Z,0.97
2024-03-16T08:47:58.862Z,0.50
2024-03-16T08:50:25.652Z,0.73
2024-03-16T08:52:52.508Z,0.60
2024-03-16T08:55:21.159Z,0.67
2024-03-16T08:57:48.150Z,0.80
2024-03-16T09:00:17.945Z,0.73
2024-03-16T09:02:48.214Z,0.70
2024-03-16T09:05:15.232Z,0.60
2024-03-16T09:07:42.751Z,1.23
2024-03-16T09:10:12.490Z,0.70
2024-03-16T09:12:40.423Z,0.77
2024-03-16T09:15:07.661Z,0.60
2024-03-16T09:17:34.724Z,2.40
2024-03-16T09:20:12.274Z,0.70
2024-03-16T09:22:39.486Z,0.77
2024-03-16T09:25:12.810Z,0.70
2024-03-16T09:27:39.871Z,0.83
2024-03-16T09:30:18.822Z,0.70
2024-03-16T09:32:46.319Z,0.80
2024-03-16T09:35:13.609Z,0.70
2024-03-16T09:37:41.011Z,1.10
2024-03-16T09:40:11.771Z,0.80
2024-03-16T09:42:39.768Z,0.37
